createdAt,value
2017-09-02T00:00:56.536Z,20.13
2017-09-02T00:03:22.848Z,21.17
2017-09-02T00:05:49.339Z,23.43
2017-09-02T00:08:15.934Z,20.17
2017-09-02T00:10:42.421Z,20.77
2017-09-02T00:13:08.842Z,19.10
2017-09-02T00:15:35.191Z,21.30
2017-09-02T00:18:01.866Z,17.83
2017-09-02T00:20:28.512Z,21.33
2017-09-02T00:22:55.152Z,18.40
2017-09-02T00:25:21.450Z,17.83
2017-09-02T00:27:47.804Z,17.07
2017-09-02T00:30:14.139Z,14.87
2017-09-02T00:32:40.470Z,14.93
2017-09-02T00:35:07.088Z,19.87
2017-09-02T00:37:33.608Z,19.50
2017-09-02T00:40:00.027Z,17.60
2017-09-02T00:42:26.466Z,17.00
2017-09-02T00:44:53.246Z,14.53
2017-09-02T00:47:19.754Z,26.47
2017-09-02T00:49:46.042Z,21.23
2017-09-02T00:52:12.547Z,17.67
2017-09-02T00:54:38.825Z,25.40
2017-09-02T00:57:05.115Z,21.90
2017-09-02T00:59:31.651Z,21.63
2017-09-02T01:01:57.980Z,14.33
2017-09-02T01:04:24.304Z,19.10
2017-09-02T01:06:50.745Z,19.73
2017-09-02T01:09:17.169Z,19.33
2017-09-02T01:11:43.629Z,18.27
2017-09-02T01:14:10.192Z,13.70
2017-09-02T01:16:36.885Z,25.50
2017-09-02T01:19:03.308Z,16.90
2017-09-02T01:21:29.653Z,16.77
2017-09-02T01:23:55.974Z,20.63
2017-09-02T01:26:22.599Z,18.90
2017-09-02T01:28:49.216Z,18.57
2017-09-02T01:31:15.894Z,15.37
2017-09-02T01:33:42.381Z,16.20
2017-09-02T01:36:08.760Z,16.50
2017-09-02T01:38:35.193Z,19.57
2017-09-02T01:41:01.807Z,15.47
2017-09-02T01:43:28.445Z,15.30
2017-09-02T01:45:54.894Z,14.17
2017-09-02T01:48:21.362Z,15.80
2017-09-02T01:50:47.920Z,19.70
2017-09-02T01:53:14.616Z,13.00
2017-09-02T01:55:41.108Z,12.80
2017-09-02T01:58:07.890Z,17.47
2017-09-02T02:00:34.513Z,16.13
2017-09-02T02:03:01.167Z,17.43
2017-09-02T02:05:27.804Z,18.97
2017-09-02T02:07:54.412Z,18.63
2017-09-02T02:10:21.080Z,16.70
2017-09-02T02:12:47.720Z,24.00
2017-09-02T02:15:14.356Z,17.03
2017-09-02T02:17:40.994Z,20.60
2017-09-02T02:20:07.636Z,17.80
2017-09-02T02:22:34.276Z,16.10
2017-09-02T02:25:00.759Z,28.13
2017-09-02T02:27:27.324Z,16.77
2017-09-02T02:29:53.805Z,17.50
2017-09-02T02:32:20.261Z,20.37
2017-09-02T02:34:46.802Z,18.87
2017-09-02T02:37:13.485Z,14.83
2017-09-02T02:39:40.130Z,17.47
2017-09-02T02:42:06.556Z,19.90
2017-09-02T02:44:32.990Z,20.00
2017-09-02T02:46:59.488Z,14.80
2017-09-02T02:49:26.266Z,15.30
2017-09-02T02:51:52.769Z,16.20
2017-09-02T02:54:19.279Z,17.17
2017-09-02T02:56:45.828Z,17.63
2017-09-02T02:59:12.271Z,17.57
2017-09-02T03:01:38.786Z,17.90
2017-09-02T03:04:05.426Z,24.10
2017-09-02T03:06:32.092Z,21.23
2017-09-02T03:08:58.551Z,21.43
2017-09-02T03:11:25.191Z,20.40
2017-09-02T03:13:51.671Z,17.23
2017-09-02T03:16:18.115Z,19.40
2017-09-02T03:18:44.901Z,24.60
2017-09-02T03:21:11.542Z,29.97
2017-09-02T03:23:37.974Z,19.00
2017-09-02T03:26:04.611Z,27.70
2017-09-02T03:28:31.242Z,18.13
2017-09-02T03:30:57.886Z,17.03
2017-09-02T03:33:24.525Z,19.87
2017-09-02T03:35:51.147Z,28.27
2017-09-02T03:38:17.801Z,21.73
2017-09-02T03:40:44.438Z,20.07
2017-09-02T03:43:11.050Z,19.67
2017-09-02T03:45:37.709Z,22.70
2017-09-02T03:48:04.355Z,20.53
2017-09-02T03:50:30.973Z,27.80
2017-09-02T03:52:57.631Z,16.10
2017-09-02T03:55:24.268Z,23.93
2017-09-02T03:57:50.597Z,18.53
2017-09-02T04:00:17.135Z,23.47
2017-09-02T04:02:43.773Z,17.00
2017-09-02T04:05:10.399Z,24.53
2017-09-02T04:07:36.895Z,23.10
2017-09-02T04:10:03.686Z,23.03
2017-09-02T04:12:30.328Z,27.17
2017-09-02T04:14:56.973Z,24.73
2017-09-02T04:17:23.559Z,15.70
2017-09-02T04:19:50.241Z,23.73
2017-09-02T04:22:16.722Z,17.43
2017-09-02T04:24:43.263Z,21.30
2017-09-02T04:27:09.950Z,20.60
2017-09-02T04:29:36.586Z,15.20
2017-09-02T04:32:03.226Z,21.87
2017-09-02T04:34:29.828Z,19.23
2017-09-02T04:36:56.222Z,16.40
2017-09-02T04:39:22.619Z,11.17
2017-09-02T04:41:49.129Z,24.70
2017-09-02T04:44:15.800Z,24.93
2017-09-02T04:46:42.294Z,14.23
2017-09-02T04:49:08.601Z,20.50
2017-09-02T04:51:34.908Z,19.20
2017-09-02T04:54:01.268Z,15.00
2017-09-02T04:56:27.835Z,10.97
2017-09-02T04:58:54.350Z,21.87
2017-09-02T05:01:20.893Z,14.70
2017-09-02T05:03:47.336Z,20.10
2017-09-02T05:06:13.852Z,12.80
2017-09-02T05:08:40.494Z,21.47
2017-09-02T05:11:07.183Z,14.60
2017-09-02T05:13:33.803Z,18.57
2017-09-02T05:16:00.420Z,14.90
2017-09-02T05:18:26.938Z,13.40
2017-09-02T05:20:53.381Z,18.13
2017-09-02T05:23:20.169Z,14.93
2017-09-02T05:25:46.760Z,12.20
2017-09-02T05:28:13.238Z,19.10
2017-09-02T05:30:39.878Z,12.00
2017-09-02T05:33:06.490Z,13.10
2017-09-02T05:35:32.944Z,11.10
2017-09-02T05:37:59.588Z,14.03
2017-09-02T05:40:26.068Z,12.90
2017-09-02T05:42:52.661Z,23.70
2017-09-02T05:45:19.298Z,15.50
2017-09-02T05:47:45.893Z,16.80
2017-09-02T05:50:12.359Z,16.30
2017-09-02T05:52:38.953Z,33.40
2017-09-02T05:55:05.447Z,12.77
2017-09-02T05:57:32.079Z,12.10
2017-09-02T05:59:58.715Z,26.73
2017-09-02T06:02:25.150Z,12.23
2017-09-02T06:04:51.582Z,14.43
2017-09-02T06:07:18.222Z,20.10
2017-09-02T06:09:44.820Z,24.80
2017-09-02T06:12:11.492Z,23.30
2017-09-02T06:14:38.004Z,22.67
2017-09-02T06:17:04.366Z,16.50
2017-09-02T06:19:30.969Z,14.13
2017-09-02T06:21:57.587Z,18.47
2017-09-02T06:24:24.253Z,22.93
2017-09-02T06:26:50.706Z,10.87
2017-09-02T06:29:17.286Z,11.27
2017-09-02T06:31:43.730Z,11.83
2017-09-02T06:34:10.216Z,11.00
2017-09-02T06:36:37.058Z,22.73
2017-09-02T06:39:03.492Z,36.23
2017-09-02T06:41:29.926Z,13.00
2017-09-02T06:43:56.736Z,23.83
2017-09-02T06:46:23.093Z,19.47
2017-09-02T06:48:49.499Z,15.60
2017-09-02T06:51:16.219Z,15.53
2017-09-02T06:53:42.760Z,11.53
2017-09-02T06:56:09.125Z,14.90
2017-09-02T06:58:35.571Z,10.37
2017-09-02T07:01:01.948Z,10.27
2017-09-02T07:03:28.310Z,17.03
2017-09-02T07:05:54.770Z,16.40
2017-09-02T07:08:21.130Z,11.93
2017-09-02T07:10:47.506Z,16.10
2017-09-02T07:13:13.953Z,14.73
2017-09-02T07:15:40.331Z,27.47
2017-09-02T07:18:06.720Z,21.10
2017-09-02T07:20:33.326Z,29.40
2017-09-02T07:23:00.109Z,23.77
2017-09-02T07:25:26.736Z,23.13
2017-09-02T07:27:53.582Z,8.57
2017-09-02T07:30:20.171Z,20.50
2017-09-02T07:32:46.711Z,25.80
2017-09-02T07:35:13.515Z,12.23
2017-09-02T07:37:39.933Z,15.60
2017-09-02T07:40:06.448Z,20.95
2017-09-02T07:42:33.155Z,42.35
2017-09-02T07:44:59.703Z,28.58
2017-09-02T07:47:26.280Z,52.33
2017-09-02T07:49:52.712Z,54.10
2017-09-02T07:52:19.309Z,41.10
2017-09-02T07:54:45.849Z,52.28
2017-09-02T07:57:12.491Z,48.78
2017-09-02T07:59:39.031Z,21.27
2017-09-02T08:02:05.495Z,35.00
2017-09-02T08:04:31.929Z,24.92
2017-09-02T08:06:58.314Z,26.35
2017-09-02T08:09:24.689Z,28.75
2017-09-02T08:11:51.143Z,28.58
2017-09-02T08:14:17.515Z,15.05
2017-09-02T08:16:43.893Z,18.20
2017-09-02T08:19:10.310Z,16.70
2017-09-02T08:21:36.691Z,15.02
2017-09-02T08:24:03.053Z,30.80
2017-09-02T08:26:29.757Z,22.55
2017-09-02T08:28:56.139Z,19.48
2017-09-02T08:31:22.505Z,13.62
2017-09-02T08:33:48.929Z,12.63
2017-09-02T08:36:15.310Z,14.30
2017-09-02T08:38:41.688Z,8.68
2017-09-02T08:41:08.089Z,11.43
2017-09-02T08:43:34.472Z,11.35
2017-09-02T08:46:00.848Z,9.00
2017-09-02T08:48:27.278Z,6.40
2017-09-02T08:50:53.650Z,7.45
2017-09-02T08:53:20.002Z,6.97
2017-09-02T08:55:46.447Z,5.37
2017-09-02T08:58:12.809Z,5.78
2017-09-02T09:00:39.184Z,5.62
2017-09-02T09:03:05.602Z,8.75
2017-09-02T09:05:31.977Z,6.10
2017-09-02T09:07:58.356Z,6.32
2017-09-02T09:10:24.816Z,13.68
2017-09-02T09:12:51.168Z,5.93
2017-09-02T09:15:17.520Z,6.97
2017-09-02T09:17:43.951Z,10.73
2017-09-02T09:20:10.349Z,22.05
2017-09-02T09:22:36.712Z,7.47
2017-09-02T09:25:03.134Z,10.23
2017-09-02T09:27:29.505Z,8.43
2017-09-02T09:29:55.876Z,7.93
2017-09-02T09:32:22.315Z,5.87
2017-09-02T09:34:48.672Z,11.18
2017-09-02T09:37:15.033Z,13.45
2017-09-02T09:39:41.488Z,11.60
2017-09-02T09:42:07.881Z,11.55
2017-09-02T09:44:34.252Z,7.45
2017-09-02T09:47:00.700Z,10.65
2017-09-02T09:49:27.083Z,12.52
2017-09-02T09:51:53.448Z,9.27
2017-09-02T09:54:19.869Z,8.30
2017-09-02T09:56:46.233Z,14.45
2017-09-02T09:59:12.602Z,8.23
2017-09-02T10:01:39.040Z,9.75
2017-09-02T10:04:05.409Z,8.15
2017-09-02T10:06:31.758Z,6.10
2017-09-02T10:08:58.173Z,6.78
2017-09-02T10:11:24.520Z,6.68
2017-09-02T10:13:50.894Z,5.43
2017-09-02T10:16:17.315Z,6.85
2017-09-02T10:18:43.666Z,7.47
2017-09-02T10:21:10.032Z,5.87
2017-09-02T10:23:36.460Z,6.55
2017-09-02T10:26:02.837Z,5.87
2017-09-02T10:28:29.208Z,5.53
2017-09-02T10:30:55.630Z,6.15
2017-09-02T10:33:21.981Z,7.05
2017-09-02T10:35:48.348Z,8.70
2017-09-02T10:38:14.794Z,9.60
2017-09-02T10:40:41.163Z,8.25
2017-09-02T10:43:07.512Z,7.15
2017-09-02T10:45:33.926Z,7.20
2017-09-02T10:48:00.283Z,5.12
2017-09-02T10:50:26.642Z,5.70
2017-09-02T10:52:53.103Z,5.95
2017-09-02T10:55:19.492Z,6.07
2017-09-02T10:57:45.861Z,5.25
2017-09-02T11:00:12.456Z,6.47
2017-09-02T11:02:38.817Z,6.82
2017-09-02T11:05:05.185Z,9.10
2017-09-02T11:07:31.638Z,6.50
2017-09-02T11:09:58.005Z,6.15
2017-09-02T11:12:24.378Z,6.35
2017-09-02T11:14:50.816Z,6.40
2017-09-02T11:17:17.177Z,6.43
2017-09-02T11:19:43.539Z,7.03
2017-09-02T11:22:09.992Z,9.60
2017-09-02T11:24:36.396Z,6.45
2017-09-02T11:27:02.825Z,9.32
2017-09-02T11:29:29.261Z,6.72
2017-09-02T11:31:55.648Z,7.90
2017-09-02T11:34:22.014Z,7.35
2017-09-02T11:36:48.445Z,8.85
2017-09-02T11:39:14.817Z,6.82
2017-09-02T11:41:41.209Z,28.85
2017-09-02T11:44:07.625Z,9.18
2017-09-02T11:46:33.986Z,6.30
2017-09-02T11:49:00.345Z,6.10
2017-09-02T11:51:26.767Z,9.70
2017-09-02T11:53:53.133Z,5.22
2017-09-02T11:56:19.490Z,6.55
2017-09-02T11:58:45.909Z,7.65
2017-09-02T12:01:12.276Z,7.70
2017-09-02T12:03:38.645Z,10.38
2017-09-02T12:06:05.349Z,12.68
2017-09-02T12:08:31.711Z,9.63
2017-09-02T12:10:58.078Z,10.02
2017-09-02T12:13:24.506Z,7.97
2017-09-02T12:15:50.880Z,10.20
2017-09-02T12:18:17.254Z,7.60
2017-09-02T12:20:43.680Z,7.22
2017-09-02T12:23:10.064Z,5.47
2017-09-02T12:25:36.462Z,6.03
2017-09-02T12:28:02.892Z,7.72
2017-09-02T12:30:29.303Z,7.60
2017-09-02T12:32:55.695Z,5.80
2017-09-02T12:35:22.091Z,10.02
2017-09-02T12:37:48.476Z,7.95
2017-09-02T12:40:14.877Z,6.12
2017-09-02T12:42:41.321Z,5.68
2017-09-02T12:45:07.718Z,7.05
2017-09-02T12:47:34.121Z,5.43
2017-09-02T12:50:00.562Z,5.70
2017-09-02T12:52:26.949Z,6.90
2017-09-02T12:54:53.326Z,6.35
2017-09-02T12:57:19.759Z,11.27
2017-09-02T12:59:46.158Z,8.02
2017-09-02T13:02:12.534Z,14.63
2017-09-02T13:04:38.971Z,5.72
2017-09-02T13:07:05.362Z,9.80
2017-09-02T13:09:31.739Z,5.45
2017-09-02T13:11:58.187Z,5.87
2017-09-02T13:14:24.567Z,6.03
2017-09-02T13:16:50.943Z,6.72
2017-09-02T13:19:17.374Z,7.62
2017-09-02T13:21:43.773Z,7.95
2017-09-02T13:24:10.464Z,10.20
2017-09-02T13:26:36.931Z,7.10
2017-09-02T13:29:03.570Z,15.10
2017-09-02T13:31:30.170Z,8.70
2017-09-02T13:33:56.789Z,13.30
2017-09-02T13:36:23.552Z,10.60
2017-09-02T13:38:50.071Z,11.93
2017-09-02T13:41:16.713Z,10.43
2017-09-02T13:43:43.479Z,9.60
2017-09-02T13:46:09.935Z,7.57
2017-09-02T13:48:36.741Z,12.27
2017-09-02T13:51:03.259Z,11.93
2017-09-02T13:53:30.025Z,12.00
2017-09-02T13:55:56.642Z,9.50
2017-09-02T13:58:23.185Z,9.13
2017-09-02T14:00:49.950Z,10.60
2017-09-02T14:03:16.389Z,9.40
2017-09-02T14:05:42.826Z,7.27
2017-09-02T14:08:09.452Z,8.43
2017-09-02T14:10:36.296Z,7.70
2017-09-02T14:13:02.816Z,9.67
2017-09-02T14:15:29.192Z,21.33
2017-09-02T14:17:55.820Z,8.13
2017-09-02T14:20:22.249Z,26.43
2017-09-02T14:22:48.731Z,12.50
2017-09-02T14:25:15.312Z,14.07
2017-09-02T14:27:41.764Z,11.77
2017-09-02T14:30:08.132Z,15.37
2017-09-02T14:32:34.599Z,16.97
2017-09-02T14:35:00.964Z,7.80
2017-09-02T14:37:27.337Z,9.43
2017-09-02T14:39:53.814Z,9.33
2017-09-02T14:42:20.191Z,7.33
2017-09-02T14:44:46.540Z,7.13
2017-09-02T14:47:12.957Z,7.13
2017-09-02T14:49:39.318Z,8.40
2017-09-02T14:52:05.708Z,7.13
2017-09-02T14:54:32.144Z,10.93
2017-09-02T14:56:58.527Z,15.33
2017-09-02T14:59:24.881Z,9.70
2017-09-02T15:01:51.410Z,8.43
2017-09-02T15:04:17.846Z,12.60
2017-09-02T15:06:44.324Z,9.93
2017-09-02T15:09:10.964Z,6.47
2017-09-02T15:11:37.759Z,9.00
2017-09-02T15:14:04.185Z,8.77
2017-09-02T15:16:30.611Z,10.53
2017-09-02T15:18:57.058Z,7.63
2017-09-02T15:21:23.648Z,8.60
2017-09-02T15:23:50.320Z,13.03
2017-09-02T15:26:16.731Z,18.33
2017-09-02T15:28:43.254Z,12.83
2017-09-02T15:31:09.899Z,11.47
2017-09-02T15:33:36.704Z,7.33
2017-09-02T15:36:03.128Z,11.90
2017-09-02T15:38:29.755Z,11.87
2017-09-02T15:40:56.200Z,7.40
2017-09-02T15:43:22.486Z,10.13
2017-09-02T15:45:49.262Z,14.93
2017-09-02T15:48:15.868Z,15.90
2017-09-02T15:50:42.389Z,8.43
2017-09-02T15:53:08.971Z,9.07
2017-09-02T15:55:35.299Z,9.47
2017-09-02T15:58:01.839Z,15.43
2017-09-02T16:00:28.654Z,17.23
2017-09-02T16:02:55.319Z,10.17
2017-09-02T16:05:21.749Z,11.43
2017-09-02T16:07:48.388Z,13.10
2017-09-02T16:10:14.994Z,14.77
2017-09-02T16:12:41.668Z,15.43
2017-09-02T16:15:08.261Z,18.30
2017-09-02T16:17:34.541Z,16.83
2017-09-02T16:20:01.145Z,17.07
2017-09-02T16:22:27.497Z,19.97
2017-09-02T16:24:53.976Z,22.50
2017-09-02T16:27:20.271Z,31.73
2017-09-02T16:29:46.903Z,26.83
2017-09-02T16:32:13.336Z,28.67
2017-09-02T16:34:39.767Z,34.17
2017-09-02T16:37:06.199Z,20.83
2017-09-02T16:39:32.536Z,16.70
2017-09-02T16:41:58.863Z,20.80
2017-09-02T16:44:25.286Z,9.93
2017-09-02T16:46:51.936Z,38.20
2017-09-02T16:49:18.552Z,44.47
2017-09-02T16:51:44.989Z,40.20
2017-09-02T16:54:11.425Z,20.20
2017-09-02T16:56:37.958Z,23.10
2017-09-02T16:59:04.508Z,21.53
2017-09-02T17:01:30.991Z,28.93
2017-09-02T17:03:57.361Z,21.37
2017-09-02T17:06:24.012Z,15.70
2017-09-02T17:08:50.619Z,21.30
2017-09-02T17:11:17.286Z,16.90
2017-09-02T17:13:43.716Z,19.93
2017-09-02T17:16:10.153Z,24.87
2017-09-02T17:18:36.590Z,32.70
2017-09-02T17:21:03.026Z,28.93
2017-09-02T17:23:29.303Z,27.53
2017-09-02T17:25:55.599Z,14.53
2017-09-02T17:28:22.182Z,24.97
2017-09-02T17:30:48.600Z,33.97
2017-09-02T17:33:14.877Z,32.10
2017-09-02T17:35:41.608Z,17.10
2017-09-02T17:38:08.126Z,19.47
2017-09-02T17:40:34.524Z,34.20
2017-09-02T17:43:00.924Z,24.23
2017-09-02T17:45:27.566Z,21.77
2017-09-02T17:47:53.993Z,15.30
2017-09-02T17:50:20.386Z,15.33
2017-09-02T17:52:46.859Z,13.93
2017-09-02T17:55:13.276Z,20.50
2017-09-02T17:57:39.710Z,25.70
2017-09-02T18:00:06.148Z,22.00
2017-09-02T18:02:32.428Z,21.20
2017-09-02T18:04:58.756Z,18.93
2017-09-02T18:07:25.048Z,26.83
2017-09-02T18:09:51.372Z,16.60
2017-09-02T18:12:17.965Z,20.70
2017-09-02T18:14:44.257Z,22.27
2017-09-02T18:17:10.579Z,29.40
2017-09-02T18:19:37.166Z,19.60
2017-09-02T18:22:03.607Z,23.53
2017-09-02T18:24:30.274Z,23.03
2017-09-02T18:26:56.923Z,30.57
2017-09-02T18:29:23.212Z,26.87
2017-09-02T18:31:49.774Z,18.93
2017-09-02T18:34:16.222Z,21.13
2017-09-02T18:36:42.517Z,23.60
2017-09-02T18:39:08.809Z,18.20
2017-09-02T18:41:35.177Z,16.20
2017-09-02T18:44:01.461Z,12.63
2017-09-02T18:46:27.760Z,31.40
2017-09-02T18:48:54.111Z,28.23
2017-09-02T18:51:20.417Z,23.70
2017-09-02T18:53:46.736Z,19.77
2017-09-02T18:56:13.083Z,18.53
2017-09-02T18:58:39.361Z,16.87
2017-09-02T19:01:05.663Z,22.33
2017-09-02T19:03:32.372Z,25.60
2017-09-02T19:05:59.033Z,22.33
2017-09-02T19:08:25.321Z,21.80
2017-09-02T19:10:51.978Z,23.10
2017-09-02T19:13:18.362Z,34.63
2017-09-02T19:15:44.841Z,28.83
2017-09-02T19:18:11.207Z,19.23
2017-09-02T19:20:37.525Z,22.83
2017-09-02T19:23:03.937Z,27.63
2017-09-02T19:25:30.428Z,29.60
2017-09-02T19:27:57.844Z,23.20
2017-09-02T19:30:24.278Z,25.83
2017-09-02T19:32:50.848Z,26.27
2017-09-02T19:35:17.157Z,21.77
2017-09-02T19:37:43.462Z,20.40
2017-09-02T19:40:09.817Z,22.80
2017-09-02T19:42:36.126Z,20.07
2017-09-02T19:45:02.446Z,31.90
2017-09-02T19:47:28.811Z,34.23
2017-09-02T19:49:55.109Z,35.23
2017-09-02T19:52:21.682Z,39.03
2017-09-02T19:54:48.116Z,34.53
2017-09-02T19:57:14.431Z,25.60
2017-09-02T19:59:40.718Z,24.47
2017-09-02T20:02:07.067Z,26.87
2017-09-02T20:04:33.357Z,40.97
2017-09-02T20:06:59.650Z,52.87
2017-09-02T20:09:26.018Z,69.23
2017-09-02T20:11:52.328Z,27.17
2017-09-02T20:14:18.630Z,23.20
2017-09-02T20:16:44.996Z,42.60
2017-09-02T20:19:11.284Z,46.83
2017-09-02T20:21:37.585Z,36.20
2017-09-02T20:24:03.951Z,22.33
2017-09-02T20:26:30.235Z,42.43
2017-09-02T20:28:56.558Z,33.00
2017-09-02T20:31:22.939Z,35.63
2017-09-02T20:33:49.235Z,33.67
2017-09-02T20:36:15.529Z,32.23
2017-09-02T20:38:41.901Z,19.93
2017-09-02T20:41:08.196Z,12.20
2017-09-02T20:43:34.497Z,23.63
2017-09-02T20:46:00.857Z,36.87
2017-09-02T20:48:27.184Z,22.30
2017-09-02T20:50:53.487Z,27.60
2017-09-02T20:53:19.862Z,17.37
2017-09-02T20:55:46.167Z,24.30
2017-09-02T20:58:12.464Z,14.97
2017-09-02T21:00:38.772Z,9.97
2017-09-02T21:03:05.071Z,20.13
2017-09-02T21:05:31.377Z,15.27
2017-09-02T21:07:57.686Z,29.03
2017-09-02T21:10:24.067Z,31.90
2017-09-02T21:12:50.349Z,28.17
2017-09-02T21:15:16.751Z,46.03
2017-09-02T21:17:43.063Z,47.20
2017-09-02T21:20:09.366Z,55.33
2017-09-02T21:22:35.720Z,39.00
2017-09-02T21:25:02.000Z,24.93
2017-09-02T21:27:28.289Z,13.40
2017-09-02T21:29:54.648Z,15.53
2017-09-02T21:32:20.956Z,18.90
2017-09-02T21:34:47.243Z,12.53
2017-09-02T21:37:13.602Z,11.70
2017-09-02T21:39:39.912Z,12.40
2017-09-02T21:42:06.208Z,10.87
2017-09-02T21:44:32.566Z,9.43
2017-09-02T21:46:58.883Z,13.17
2017-09-02T21:49:25.149Z,12.50
2017-09-02T21:51:51.496Z,15.50
2017-09-02T21:54:17.795Z,12.63
2017-09-02T21:56:44.080Z,10.67
2017-09-02T21:59:10.445Z,11.63
2017-09-02T22:01:36.759Z,11.23
2017-09-02T22:04:03.063Z,9.97
2017-09-02T22:06:29.441Z,8.83
2017-09-02T22:08:55.738Z,10.00
2017-09-02T22:11:22.041Z,8.53
2017-09-02T22:13:48.372Z,11.77
2017-09-02T22:16:14.681Z,16.57
2017-09-02T22:18:40.969Z,11.60
2017-09-02T22:21:07.323Z,16.40
2017-09-02T22:23:33.616Z,9.60
2017-09-02T22:25:59.911Z,12.93
2017-09-02T22:28:26.257Z,16.30
2017-09-02T22:30:52.549Z,15.10
2017-09-02T22:33:18.846Z,13.80
2017-09-02T22:35:45.210Z,9.63
2017-09-02T22:38:11.520Z,12.90
2017-09-02T22:40:37.828Z,21.50
2017-09-02T22:43:04.185Z,10.60
2017-09-02T22:45:30.501Z,36.43
2017-09-02T22:47:56.811Z,30.90
2017-09-02T22:50:23.166Z,16.67
2017-09-02T22:52:49.480Z,15.37
2017-09-02T22:55:15.785Z,10.53
2017-09-02T22:57:42.139Z,13.80
2017-09-02T23:00:08.429Z,12.30
2017-09-02T23:02:34.735Z,15.77
2017-09-02T23:05:01.140Z,16.90
2017-09-02T23:07:27.456Z,16.70
2017-09-02T23:09:53.771Z,13.17
2017-09-02T23:12:20.119Z,19.70
2017-09-02T23:14:46.413Z,10.50
2017-09-02T23:17:12.710Z,25.03
2017-09-02T23:19:39.062Z,17.07
2017-09-02T23:22:05.375Z,11.40
2017-09-02T23:24:31.681Z,12.83
2017-09-02T23:26:58.030Z,12.90
2017-09-02T23:29:24.325Z,14.60
2017-09-02T23:31:50.632Z,19.03
2017-09-02T23:34:17.282Z,10.37
2017-09-02T23:36:43.567Z,11.40
2017-09-02T23:39:09.996Z,12.57
2017-09-02T23:41:36.357Z,15.43
2017-09-02T23:44:04.235Z,16.00
2017-09-02T23:46:30.539Z,18.93
2017-09-02T23:48:56.905Z,13.80
2017-09-02T23:51:23.208Z,15.30
2017-09-02T23:53:49.520Z,13.30
2017-09-02T23:56:15.879Z,14.10
2017-09-02T23:58:42.184Z,12.07
